sensor_id;sensor_type;location;lat;lon;timestamp;P1;durP1;ratioP1;P2;durP2;ratioP2
24090;SDS011;12272;52.426;17.100;2023-05-07T00:00:45;5.13;;;4.63;;
24090;SDS011;12272;52.426;17.100;2023-05-07T00:05:47;5.60;;;4.87;;
24090;SDS011;12272;52.426;17.100;2023-05-07T00:10:50;8.50;;;5.47;;
24090;SDS011;12272;52.426;17.100;2023-05-07T00:15:52;8.80;;;5.07;;
24090;SDS011;12272;52.426;17.100;2023-05-07T00:20:55;8.73;;;4.63;;
24090;SDS011;12272;52.426;17.100;2023-05-07T00:25:58;8.77;;;5.50;;
24090;SDS011;12272;52.426;17.100;2023-05-07T00:31:01;7.00;;;5.80;;
24090;SDS011;12272;52.426;17.100;2023-05-07T00:36:03;6.63;;;6.00;;
24090;SDS011;12272;52.426;17.100;2023-05-07T00:41:06;6.80;;;5.57;;
24090;SDS011;12272;52.426;17.100;2023-05-07T00:46:08;7.97;;;6.20;;
24090;SDS011;12272;52.426;17.100;2023-05-07T00:51:12;8.77;;;5.93;;
24090;SDS011;12272;52.426;17.100;2023-05-07T00:56:14;10.80;;;6.87;;
24090;SDS011;12272;52.426;17.100;2023-05-07T01:01:18;13.80;;;9.27;;
24090;SDS011;12272;52.426;17.100;2023-05-07T01:06:20;12.67;;;8.83;;
24090;SDS011;12272;52.426;17.100;2023-05-07T01:11:25;11.20;;;7.60;;
24090;SDS011;12272;52.426;17.100;2023-05-07T01:16:28;16.20;;;8.33;;
24090;SDS011;12272;52.426;17.100;2023-05-07T01:21:32;9.17;;;7.30;;
24090;SDS011;12272;52.426;17.100;2023-05-07T01:26:39;9.73;;;6.50;;
24090;SDS011;12272;52.426;17.100;2023-05-07T01:31:41;14.97;;;7.27;;
24090;SDS011;12272;52.426;17.100;2023-05-07T01:36:45;10.43;;;7.53;;
24090;SDS011;12272;52.426;17.100;2023-05-07T01:41:48;11.33;;;6.67;;
24090;SDS011;12272;52.426;17.100;2023-05-07T01:46:51;8.60;;;6.97;;
24090;SDS011;12272;52.426;17.100;2023-05-07T01:51:55;9.87;;;5.73;;
24090;SDS011;12272;52.426;17.100;2023-05-07T01:56:58;10.93;;;8.17;;
24090;SDS011;12272;52.426;17.100;2023-05-07T02:02:01;9.37;;;5.80;;
24090;SDS011;12272;52.426;17.100;2023-05-07T02:07:05;10.07;;;6.77;;
24090;SDS011;12272;52.426;17.100;2023-05-07T02:12:08;10.10;;;6.97;;
24090;SDS011;12272;52.426;17.100;2023-05-07T02:17:10;11.13;;;8.60;;
24090;SDS011;12272;52.426;17.100;2023-05-07T02:22:13;14.23;;;9.10;;
24090;SDS011;12272;52.426;17.100;2023-05-07T02:27:15;16.47;;;8.17;;
24090;SDS011;12272;52.426;17.100;2023-05-07T02:32:19;9.23;;;6.50;;
24090;SDS011;12272;52.426;17.100;2023-05-07T02:37:22;5.63;;;5.03;;
24090;SDS011;12272;52.426;17.100;2023-05-07T02:42:24;15.03;;;8.80;;
24090;SDS011;12272;52.426;17.100;2023-05-07T02:47:27;10.30;;;8.60;;
24090;SDS011;12272;52.426;17.100;2023-05-07T02:52:32;11.50;;;8.00;;
24090;SDS011;12272;52.426;17.100;2023-05-07T02:57:35;8.33;;;7.00;;
24090;SDS011;12272;52.426;17.100;2023-05-07T03:02:38;12.13;;;6.20;;
24090;SDS011;12272;52.426;17.100;2023-05-07T03:07:41;9.50;;;7.70;;
24090;SDS011;12272;52.426;17.100;2023-05-07T03:12:48;8.47;;;7.07;;
24090;SDS011;12272;52.426;17.100;2023-05-07T03:17:52;13.10;;;8.50;;
24090;SDS011;12272;52.426;17.100;2023-05-07T03:22:54;10.67;;;7.27;;
24090;SDS011;12272;52.426;17.100;2023-05-07T03:27:57;7.10;;;4.80;;
24090;SDS011;12272;52.426;17.100;2023-05-07T03:33:08;9.23;;;6.73;;
24090;SDS011;12272;52.426;17.100;2023-05-07T03:38:11;15.37;;;8.37;;
24090;SDS011;12272;52.426;17.100;2023-05-07T03:43:14;12.43;;;8.50;;
24090;SDS011;12272;52.426;17.100;2023-05-07T03:48:22;11.80;;;6.70;;
24090;SDS011;12272;52.426;17.100;2023-05-07T03:53:26;12.77;;;7.80;;
24090;SDS011;12272;52.426;17.100;2023-05-07T03:58:29;9.73;;;6.43;;
24090;SDS011;12272;52.426;17.100;2023-05-07T04:03:34;14.23;;;8.43;;
24090;SDS011;12272;52.426;17.100;2023-05-07T04:08:38;13.23;;;7.70;;
24090;SDS011;12272;52.426;17.100;2023-05-07T04:13:42;11.23;;;7.53;;
24090;SDS011;12272;52.426;17.100;2023-05-07T04:18:44;7.93;;;6.33;;
24090;SDS011;12272;52.426;17.100;2023-05-07T04:23:47;11.00;;;7.43;;
24090;SDS011;12272;52.426;17.100;2023-05-07T04:28:50;12.60;;;8.00;;
24090;SDS011;12272;52.426;17.100;2023-05-07T04:33:52;15.77;;;9.80;;
24090;SDS011;12272;52.426;17.100;2023-05-07T04:38:56;8.60;;;7.23;;
24090;SDS011;12272;52.426;17.100;2023-05-07T04:43:58;8.60;;;6.70;;
24090;SDS011;12272;52.426;17.100;2023-05-07T04:49:04;8.20;;;6.63;;
24090;SDS011;12272;52.426;17.100;2023-05-07T04:54:07;9.40;;;6.57;;
24090;SDS011;12272;52.426;17.100;2023-05-07T04:59:10;10.83;;;7.93;;
24090;SDS011;12272;52.426;17.100;2023-05-07T05:04:16;11.10;;;7.20;;
24090;SDS011;12272;52.426;17.100;2023-05-07T05:09:18;5.63;;;5.07;;
24090;SDS011;12272;52.426;17.100;2023-05-07T05:14:21;7.80;;;5.57;;
24090;SDS011;12272;52.426;17.100;2023-05-07T05:19:25;6.43;;;5.20;;
24090;SDS011;12272;52.426;17.100;2023-05-07T05:24:28;7.30;;;5.90;;
24090;SDS011;12272;52.426;17.100;2023-05-07T05:29:31;5.87;;;3.67;;
24090;SDS011;12272;52.426;17.100;2023-05-07T05:34:33;4.53;;;4.13;;
24090;SDS011;12272;52.426;17.100;2023-05-07T05:39:37;5.73;;;4.07;;
24090;SDS011;12272;52.426;17.100;2023-05-07T05:44:41;4.10;;;3.73;;
24090;SDS011;12272;52.426;17.100;2023-05-07T05:49:44;4.47;;;3.60;;
24090;SDS011;12272;52.426;17.100;2023-05-07T05:54:50;4.70;;;2.67;;
24090;SDS011;12272;52.426;17.100;2023-05-07T05:59:53;3.27;;;2.43;;
24090;SDS011;12272;52.426;17.100;2023-05-07T06:04:56;4.20;;;3.27;;
24090;SDS011;12272;52.426;17.100;2023-05-07T06:09:59;3.90;;;3.40;;
24090;SDS011;12272;52.426;17.100;2023-05-07T06:15:06;3.93;;;3.27;;
24090;SDS011;12272;52.426;17.100;2023-05-07T06:20:09;3.07;;;2.60;;
24090;SDS011;12272;52.426;17.100;2023-05-07T06:25:13;3.43;;;2.77;;
24090;SDS011;12272;52.426;17.100;2023-05-07T06:30:17;3.10;;;2.37;;
24090;SDS011;12272;52.426;17.100;2023-05-07T06:35:20;6.10;;;2.83;;
24090;SDS011;12272;52.426;17.100;2023-05-07T06:40:23;3.20;;;2.90;;
24090;SDS011;12272;52.426;17.100;2023-05-07T06:45:26;3.63;;;2.40;;
24090;SDS011;12272;52.426;17.100;2023-05-07T06:50:30;4.03;;;2.33;;
24090;SDS011;12272;52.426;17.100;2023-05-07T06:55:33;3.97;;;3.13;;
24090;SDS011;12272;52.426;17.100;2023-05-07T07:00:36;6.17;;;2.37;;
24090;SDS011;12272;52.426;17.100;2023-05-07T07:05:43;3.23;;;2.37;;
24090;SDS011;12272;52.426;17.100;2023-05-07T07:10:45;3.47;;;1.80;;
24090;SDS011;12272;52.426;17.100;2023-05-07T07:15:49;2.10;;;1.53;;
24090;SDS011;12272;52.426;17.100;2023-05-07T07:20:52;2.97;;;2.67;;
24090;SDS011;12272;52.426;17.100;2023-05-07T07:25:55;2.43;;;2.17;;
24090;SDS011;12272;52.426;17.100;2023-05-07T07:30:58;2.67;;;2.13;;
24090;SDS011;12272;52.426;17.100;2023-05-07T07:36:04;3.83;;;2.70;;
24090;SDS011;12272;52.426;17.100;2023-05-07T07:41:08;3.07;;;1.90;;
24090;SDS011;12272;52.426;17.100;2023-05-07T07:46:11;3.07;;;2.17;;
24090;SDS011;12272;52.426;17.100;2023-05-07T07:51:16;2.47;;;1.53;;
24090;SDS011;12272;52.426;17.100;2023-05-07T07:56:19;3.03;;;2.60;;
24090;SDS011;12272;52.426;17.100;2023-05-07T08:01:22;2.43;;;2.17;;
24090;SDS011;12272;52.426;17.100;2023-05-07T08:06:25;1.73;;;1.37;;
24090;SDS011;12272;52.426;17.100;2023-05-07T08:11:29;2.90;;;2.33;;
24090;SDS011;12272;52.426;17.100;2023-05-07T08:16:33;2.13;;;1.80;;
24090;SDS011;12272;52.426;17.100;2023-05-07T08:21:38;4.10;;;2.20;;
24090;SDS011;12272;52.426;17.100;2023-05-07T08:26:44;2.63;;;2.43;;
24090;SDS011;12272;52.426;17.100;2023-05-07T08:31:49;3.40;;;2.27;;
24090;SDS011;12272;52.426;17.100;2023-05-07T08:36:51;2.97;;;2.43;;
24090;SDS011;12272;52.426;17.100;2023-05-07T08:41:57;2.87;;;2.63;;
24090;SDS011;12272;52.426;17.100;2023-05-07T08:47:06;3.47;;;2.70;;
24090;SDS011;12272;52.426;17.100;2023-05-07T08:52:12;3.37;;;2.47;;
24090;SDS011;12272;52.426;17.100;2023-05-07T08:57:15;1.83;;;1.73;;
24090;SDS011;12272;52.426;17.100;2023-05-07T09:02:18;3.77;;;3.13;;
24090;SDS011;12272;52.426;17.100;2023-05-07T09:07:20;3.77;;;2.97;;
24090;SDS011;12272;52.426;17.100;2023-05-07T09:12:24;3.20;;;2.53;;
24090;SDS011;12272;52.426;17.100;2023-05-07T09:17:27;2.17;;;1.93;;
24090;SDS011;12272;52.426;17.100;2023-05-07T09:22:31;2.67;;;1.63;;
24090;SDS011;12272;52.426;17.100;2023-05-07T09:27:40;4.40;;;2.23;;
24090;SDS011;12272;52.426;17.100;2023-05-07T09:32:44;2.27;;;1.63;;
24090;SDS011;12272;52.426;17.100;2023-05-07T09:37:56;2.60;;;2.00;;
24090;SDS011;12272;52.426;17.100;2023-05-07T09:43:09;2.63;;;2.07;;
24090;SDS011;12272;52.426;17.100;2023-05-07T09:48:25;2.50;;;1.83;;
24090;SDS011;12272;52.426;17.100;2023-05-07T09:53:30;2.80;;;1.80;;
24090;SDS011;12272;52.426;17.100;2023-05-07T09:58:36;1.90;;;1.67;;
24090;SDS011;12272;52.426;17.100;2023-05-07T10:03:41;2.20;;;2.00;;
24090;SDS011;12272;52.426;17.100;2023-05-07T10:08:45;3.43;;;2.40;;
24090;SDS011;12272;52.426;17.100;2023-05-07T10:13:50;2.67;;;2.40;;
24090;SDS011;12272;52.426;17.100;2023-05-07T10:18:57;1.47;;;1.37;;
24090;SDS011;12272;52.426;17.100;2023-05-07T10:35:21;2.90;;;2.53;;
24090;SDS011;12272;52.426;17.100;2023-05-07T10:40:29;3.90;;;1.97;;
24090;SDS011;12272;52.426;17.100;2023-05-07T10:45:33;1.67;;;1.57;;
24090;SDS011;12272;52.426;17.100;2023-05-07T10:50:38;2.47;;;1.50;;
24090;SDS011;12272;52.426;17.100;2023-05-07T10:55:50;2.03;;;1.53;;
24090;SDS011;12272;52.426;17.100;2023-05-07T11:01:01;1.70;;;1.40;;
24090;SDS011;12272;52.426;17.100;2023-05-07T11:06:15;2.03;;;1.83;;
24090;SDS011;12272;52.426;17.100;2023-05-07T11:11:48;1.00;;;0.90;;
24090;SDS011;12272;52.426;17.100;2023-05-07T11:17:11;2.93;;;1.37;;
24090;SDS011;12272;52.426;17.100;2023-05-07T11:27:52;5.17;;;2.20;;
24090;SDS011;12272;52.426;17.100;2023-05-07T11:32:57;6.03;;;1.43;;
24090;SDS011;12272;52.426;17.100;2023-05-07T11:38:01;1.40;;;1.30;;
24090;SDS011;12272;52.426;17.100;2023-05-07T11:43:10;1.83;;;1.17;;
24090;SDS011;12272;52.426;17.100;2023-05-07T11:48:13;1.67;;;1.33;;
24090;SDS011;12272;52.426;17.100;2023-05-07T11:53:16;1.20;;;1.10;;
24090;SDS011;12272;52.426;17.100;2023-05-07T11:58:23;1.50;;;1.40;;
24090;SDS011;12272;52.426;17.100;2023-05-07T12:03:27;2.57;;;1.07;;
24090;SDS011;12272;52.426;17.100;2023-05-07T12:08:36;2.03;;;1.40;;
24090;SDS011;12272;52.426;17.100;2023-05-07T12:13:40;2.43;;;2.23;;
24090;SDS011;12272;52.426;17.100;2023-05-07T12:18:43;1.47;;;1.23;;
24090;SDS011;12272;52.426;17.100;2023-05-07T12:23:46;2.30;;;1.50;;
24090;SDS011;12272;52.426;17.100;2023-05-07T12:28:49;2.07;;;1.53;;
24090;SDS011;12272;52.426;17.100;2023-05-07T12:33:52;3.10;;;1.20;;
24090;SDS011;12272;52.426;17.100;2023-05-07T12:38:55;3.83;;;1.60;;
24090;SDS011;12272;52.426;17.100;2023-05-07T12:43:57;6.35;;;1.95;;
24090;SDS011;12272;52.426;17.100;2023-05-07T12:49:00;3.60;;;1.83;;
24090;SDS011;12272;52.426;17.100;2023-05-07T12:54:02;4.23;;;1.80;;
24090;SDS011;12272;52.426;17.100;2023-05-07T12:59:05;2.83;;;1.67;;
24090;SDS011;12272;52.426;17.100;2023-05-07T13:04:08;8.87;;;3.10;;
24090;SDS011;12272;52.426;17.100;2023-05-07T13:09:10;9.60;;;2.83;;
24090;SDS011;12272;52.426;17.100;2023-05-07T13:14:13;5.03;;;2.63;;
24090;SDS011;12272;52.426;17.100;2023-05-07T13:19:15;7.33;;;3.17;;
24090;SDS011;12272;52.426;17.100;2023-05-07T13:24:19;3.07;;;2.77;;
24090;SDS011;12272;52.426;17.100;2023-05-07T13:29:21;9.93;;;4.23;;
24090;SDS011;12272;52.426;17.100;2023-05-07T13:34:31;7.30;;;3.37;;
24090;SDS011;12272;52.426;17.100;2023-05-07T13:39:34;3.53;;;2.00;;
24090;SDS011;12272;52.426;17.100;2023-05-07T13:44:36;2.33;;;1.87;;
24090;SDS011;12272;52.426;17.100;2023-05-07T13:49:39;6.97;;;2.70;;
24090;SDS011;12272;52.426;17.100;2023-05-07T13:54:41;7.37;;;2.83;;
24090;SDS011;12272;52.426;17.100;2023-05-07T13:59:44;3.27;;;2.37;;
24090;SDS011;12272;52.426;17.100;2023-05-07T14:04:47;6.63;;;3.10;;
24090;SDS011;12272;52.426;17.100;2023-05-07T14:09:49;4.40;;;2.33;;
24090;SDS011;12272;52.426;17.100;2023-05-07T14:14:52;3.00;;;2.40;;
24090;SDS011;12272;52.426;17.100;2023-05-07T14:19:57;2.40;;;2.00;;
24090;SDS011;12272;52.426;17.100;2023-05-07T14:25:00;2.70;;;2.30;;
24090;SDS011;12272;52.426;17.100;2023-05-07T14:30:08;2.50;;;2.30;;
24090;SDS011;12272;52.426;17.100;2023-05-07T14:35:10;2.73;;;2.30;;
24090;SDS011;12272;52.426;17.100;2023-05-07T14:40:13;2.93;;;2.17;;
24090;SDS011;12272;52.426;17.100;2023-05-07T14:45:17;3.70;;;1.87;;
24090;SDS011;12272;52.426;17.100;2023-05-07T14:50:20;2.20;;;2.00;;
24090;SDS011;12272;52.426;17.100;2023-05-07T14:55:22;4.27;;;2.70;;
24090;SDS011;12272;52.426;17.100;2023-05-07T15:00:25;2.83;;;2.30;;
24090;SDS011;12272;52.426;17.100;2023-05-07T15:05:27;3.57;;;2.63;;
24090;SDS011;12272;52.426;17.100;2023-05-07T15:10:30;2.47;;;1.93;;
24090;SDS011;12272;52.426;17.100;2023-05-07T15:15:34;3.87;;;3.03;;
24090;SDS011;12272;52.426;17.100;2023-05-07T15:20:37;4.83;;;2.50;;
24090;SDS011;12272;52.426;17.100;2023-05-07T15:25:39;4.90;;;2.80;;
24090;SDS011;12272;52.426;17.100;2023-05-07T15:30:42;4.10;;;3.00;;
24090;SDS011;12272;52.426;17.100;2023-05-07T15:35:45;5.27;;;3.07;;
24090;SDS011;12272;52.426;17.100;2023-05-07T15:40:48;2.40;;;2.00;;
24090;SDS011;12272;52.426;17.100;2023-05-07T15:45:51;3.77;;;1.83;;
24090;SDS011;12272;52.426;17.100;2023-05-07T15:50:55;5.33;;;2.37;;
24090;SDS011;12272;52.426;17.100;2023-05-07T15:55:57;4.87;;;2.70;;
24090;SDS011;12272;52.426;17.100;2023-05-07T16:01:00;3.73;;;3.07;;
24090;SDS011;12272;52.426;17.100;2023-05-07T16:06:03;4.43;;;3.20;;
24090;SDS011;12272;52.426;17.100;2023-05-07T16:11:06;6.20;;;2.37;;
24090;SDS011;12272;52.426;17.100;2023-05-07T16:16:09;4.03;;;2.63;;
24090;SDS011;12272;52.426;17.100;2023-05-07T16:21:11;3.70;;;2.40;;
24090;SDS011;12272;52.426;17.100;2023-05-07T16:26:14;3.73;;;2.60;;
24090;SDS011;12272;52.426;17.100;2023-05-07T16:31:17;5.27;;;2.53;;
24090;SDS011;12272;52.426;17.100;2023-05-07T16:36:20;4.37;;;2.70;;
24090;SDS011;12272;52.426;17.100;2023-05-07T16:41:23;6.27;;;3.20;;
24090;SDS011;12272;52.426;17.100;2023-05-07T16:46:26;6.47;;;2.67;;
24090;SDS011;12272;52.426;17.100;2023-05-07T16:51:29;4.37;;;2.70;;
24090;SDS011;12272;52.426;17.100;2023-05-07T16:56:31;5.80;;;2.87;;
24090;SDS011;12272;52.426;17.100;2023-05-07T17:01:34;3.30;;;2.63;;
24090;SDS011;12272;52.426;17.100;2023-05-07T17:06:37;6.53;;;3.67;;
24090;SDS011;12272;52.426;17.100;2023-05-07T17:11:39;3.30;;;2.20;;
24090;SDS011;12272;52.426;17.100;2023-05-07T17:16:42;3.83;;;2.80;;
24090;SDS011;12272;52.426;17.100;2023-05-07T17:21:44;7.73;;;4.13;;
24090;SDS011;12272;52.426;17.100;2023-05-07T17:26:47;10.07;;;5.27;;
24090;SDS011;12272;52.426;17.100;2023-05-07T17:31:49;7.30;;;4.43;;
24090;SDS011;12272;52.426;17.100;2023-05-07T17:36:52;4.77;;;3.70;;
24090;SDS011;12272;52.426;17.100;2023-05-07T17:41:55;8.03;;;4.87;;
24090;SDS011;12272;52.426;17.100;2023-05-07T17:46:58;11.07;;;6.90;;
24090;SDS011;12272;52.426;17.100;2023-05-07T17:52:00;19.23;;;9.93;;
24090;SDS011;12272;52.426;17.100;2023-05-07T17:57:03;11.70;;;6.87;;
24090;SDS011;12272;52.426;17.100;2023-05-07T18:02:05;10.40;;;5.43;;
24090;SDS011;12272;52.426;17.100;2023-05-07T18:07:08;6.33;;;5.00;;
24090;SDS011;12272;52.426;17.100;2023-05-07T18:12:10;5.77;;;4.77;;
24090;SDS011;12272;52.426;17.100;2023-05-07T18:17:13;10.47;;;5.10;;
24090;SDS011;12272;52.426;17.100;2023-05-07T18:22:17;8.03;;;5.90;;
24090;SDS011;12272;52.426;17.100;2023-05-07T18:27:20;10.20;;;7.30;;
24090;SDS011;12272;52.426;17.100;2023-05-07T18:32:22;10.93;;;7.83;;
24090;SDS011;12272;52.426;17.100;2023-05-07T18:37:25;13.53;;;10.20;;
24090;SDS011;12272;52.426;17.100;2023-05-07T18:42:27;14.50;;;10.90;;
24090;SDS011;12272;52.426;17.100;2023-05-07T18:47:31;17.83;;;11.57;;
24090;SDS011;12272;52.426;17.100;2023-05-07T18:52:34;19.43;;;11.00;;
24090;SDS011;12272;52.426;17.100;2023-05-07T18:57:36;17.97;;;12.63;;
24090;SDS011;12272;52.426;17.100;2023-05-07T19:02:39;15.33;;;10.80;;
24090;SDS011;12272;52.426;17.100;2023-05-07T19:07:42;16.17;;;10.93;;
24090;SDS011;12272;52.426;17.100;2023-05-07T19:12:44;12.67;;;9.77;;
24090;SDS011;12272;52.426;17.100;2023-05-07T19:17:48;18.70;;;12.37;;
24090;SDS011;12272;52.426;17.100;2023-05-07T19:22:51;20.17;;;15.77;;
24090;SDS011;12272;52.426;17.100;2023-05-07T19:27:53;29.63;;;18.47;;
24090;SDS011;12272;52.426;17.100;2023-05-07T19:33:00;17.17;;;12.47;;
24090;SDS011;12272;52.426;17.100;2023-05-07T19:38:03;12.63;;;9.93;;
24090;SDS011;12272;52.426;17.100;2023-05-07T19:43:06;12.73;;;9.83;;
24090;SDS011;12272;52.426;17.100;2023-05-07T19:48:09;15.37;;;12.00;;
24090;SDS011;12272;52.426;17.100;2023-05-07T19:53:12;17.37;;;13.20;;
24090;SDS011;12272;52.426;17.100;2023-05-07T19:58:14;21.23;;;15.33;;
24090;SDS011;12272;52.426;17.100;2023-05-07T20:03:17;21.17;;;14.97;;
24090;SDS011;12272;52.426;17.100;2023-05-07T20:08:20;20.73;;;14.40;;
24090;SDS011;12272;52.426;17.100;2023-05-07T20:13:22;19.73;;;14.17;;
24090;SDS011;12272;52.426;17.100;2023-05-07T20:18:26;21.83;;;16.20;;
24090;SDS011;12272;52.426;17.100;2023-05-07T20:23:29;26.07;;;19.93;;
24090;SDS011;12272;52.426;17.100;2023-05-07T20:28:32;26.53;;;20.83;;
24090;SDS011;12272;52.426;17.100;2023-05-07T20:33:34;30.03;;;22.20;;
24090;SDS011;12272;52.426;17.100;2023-05-07T20:38:41;28.77;;;23.13;;
24090;SDS011;12272;52.426;17.100;2023-05-07T20:43:45;30.23;;;25.33;;
24090;SDS011;12272;52.426;17.100;2023-05-07T20:48:47;38.17;;;27.40;;
24090;SDS011;12272;52.426;17.100;2023-05-07T20:53:50;30.43;;;25.60;;
24090;SDS011;12272;52.426;17.100;2023-05-07T20:58:53;31.93;;;26.43;;
24090;SDS011;12272;52.426;17.100;2023-05-07T21:03:55;33.07;;;26.47;;
24090;SDS011;12272;52.426;17.100;2023-05-07T21:08:58;33.23;;;25.37;;
24090;SDS011;12272;52.426;17.100;2023-05-07T21:14:00;30.73;;;25.40;;
24090;SDS011;12272;52.426;17.100;2023-05-07T21:19:03;30.97;;;24.07;;
24090;SDS011;12272;52.426;17.100;2023-05-07T21:24:06;26.80;;;22.13;;
24090;SDS011;12272;52.426;17.100;2023-05-07T21:29:09;24.37;;;20.13;;
24090;SDS011;12272;52.426;17.100;2023-05-07T21:34:11;24.67;;;20.70;;
24090;SDS011;12272;52.426;17.100;2023-05-07T21:39:14;23.13;;;18.67;;
24090;SDS011;12272;52.426;17.100;2023-05-07T21:44:16;20.77;;;17.93;;
24090;SDS011;12272;52.426;17.100;2023-05-07T21:49:19;16.73;;;14.53;;
24090;SDS011;12272;52.426;17.100;2023-05-07T21:54:21;19.07;;;14.43;;
24090;SDS011;12272;52.426;17.100;2023-05-07T21:59:24;17.80;;;14.53;;
24090;SDS011;12272;52.426;17.100;2023-05-07T22:04:26;21.40;;;15.37;;
24090;SDS011;12272;52.426;17.100;2023-05-07T22:09:29;16.20;;;14.00;;
24090;SDS011;12272;52.426;17.100;2023-05-07T22:14:32;17.07;;;14.33;;
24090;SDS011;12272;52.426;17.100;2023-05-07T22:19:34;23.23;;;16.77;;
24090;SDS011;12272;52.426;17.100;2023-05-07T22:24:37;17.73;;;15.60;;
24090;SDS011;12272;52.426;17.100;2023-05-07T22:29:39;20.47;;;15.07;;
24090;SDS011;12272;52.426;17.100;2023-05-07T22:34:42;21.27;;;15.47;;
24090;SDS011;12272;52.426;17.100;2023-05-07T22:39:44;20.33;;;14.97;;
24090;SDS011;12272;52.426;17.100;2023-05-07T22:44:50;21.00;;;14.53;;
24090;SDS011;12272;52.426;17.100;2023-05-07T22:49:54;19.23;;;15.10;;
24090;SDS011;12272;52.426;17.100;2023-05-07T22:54:57;19.90;;;14.10;;
24090;SDS011;12272;52.426;17.100;2023-05-07T22:59:59;20.37;;;15.20;;
24090;SDS011;12272;52.426;17.100;2023-05-07T23:05:02;20.50;;;15.27;;
24090;SDS011;12272;52.426;17.100;2023-05-07T23:10:05;17.60;;;13.97;;
24090;SDS011;12272;52.426;17.100;2023-05-07T23:15:08;20.00;;;15.40;;
24090;SDS011;12272;52.426;17.100;2023-05-07T23:20:11;19.60;;;15.73;;
24090;SDS011;12272;52.426;17.100;2023-05-07T23:25:15;18.77;;;14.83;;
24090;SDS011;12272;52.426;17.100;2023-05-07T23:30:18;19.37;;;13.90;;
24090;SDS011;12272;52.426;17.100;2023-05-07T23:35:21;20.10;;;13.90;;
24090;SDS011;12272;52.426;17.100;2023-05-07T23:40:24;17.83;;;14.17;;
24090;SDS011;12272;52.426;17.100;2023-05-07T23:45:27;20.17;;;15.13;;
24090;SDS011;12272;52.426;17.100;2023-05-07T23:50:30;20.67;;;15.50;;
24090;SDS011;12272;52.426;17.100;2023-05-07T23:55:32;19.57;;;14.57;;
